createdAt,value
2022-07-29T00:02:50.265Z,1.97
2022-07-29T00:06:52.376Z,2.15
2022-07-29T00:10:54.051Z,2.93
2022-07-29T00:14:56.712Z,2.05
2022-07-29T00:19:01.867Z,2.28
2022-07-29T00:23:04.270Z,2.25
2022-07-29T00:27:06.057Z,2.30
2022-07-29T00:31:09.090Z,1.92
2022-07-29T00:35:29.586Z,2.08
2022-07-29T00:39:31.479Z,2.28
2022-07-29T00:43:33.298Z,2.47
2022-07-29T00:47:34.903Z,2.70
2022-07-29T00:51:37.920Z,2.30
2022-07-29T00:55:39.792Z,2.40
2022-07-29T00:59:41.497Z,2.63
2022-07-29T01:03:43.175Z,2.33
2022-07-29T01:07:46.711Z,2.20
2022-07-29T01:11:49.474Z,2.33
2022-07-29T01:20:07.085Z,2.15
2022-07-29T01:24:17.534Z,2.38
2022-07-29T01:28:45.911Z,2.13
2022-07-29T01:32:55.535Z,2.00
2022-07-29T01:37:12.080Z,2.30
2022-07-29T01:41:21.548Z,1.90
2022-07-29T01:45:34.952Z,2.17
2022-07-29T01:49:41.081Z,1.95
2022-07-29T01:53:56.054Z,1.95
2022-07-29T01:57:59.934Z,1.98
2022-07-29T02:02:02.600Z,1.98
2022-07-29T02:06:07.105Z,1.88
2022-07-29T02:10:11.601Z,1.77
2022-07-29T02:14:15.725Z,2.20
2022-07-29T02:18:19.429Z,1.77
2022-07-29T02:22:22.144Z,1.92
2022-07-29T02:26:27.179Z,2.50
2022-07-29T02:30:31.406Z,2.70
2022-07-29T02:34:35.429Z,2.25
2022-07-29T02:38:53.711Z,2.42
2022-07-29T02:42:55.978Z,2.33
2022-07-29T02:47:31.576Z,2.33
2022-07-29T02:51:52.118Z,2.65
2022-07-29T02:56:00.147Z,2.90
2022-07-29T03:00:08.162Z,2.25
2022-07-29T03:04:12.755Z,2.53
2022-07-29T03:08:16.804Z,2.70
2022-07-29T03:12:19.209Z,2.53
2022-07-29T03:16:22.029Z,2.17
2022-07-29T03:24:29.745Z,2.67
2022-07-29T03:28:32.605Z,2.55
2022-07-29T03:32:34.688Z,2.22
2022-07-29T03:36:36.395Z,2.70
2022-07-29T03:40:49.825Z,2.50
2022-07-29T03:44:53.686Z,2.30
2022-07-29T03:49:01.015Z,2.30
2022-07-29T03:53:04.165Z,2.30
2022-07-29T03:57:07.075Z,2.30
2022-07-29T04:05:14.421Z,2.58
2022-07-29T04:09:18.173Z,2.55
2022-07-29T04:13:21.206Z,3.03
2022-07-29T04:17:23.553Z,2.67
2022-07-29T04:21:25.691Z,2.50
2022-07-29T04:25:27.470Z,2.47
2022-07-29T04:29:29.127Z,2.92
2022-07-29T04:33:30.728Z,2.75
2022-07-29T04:37:32.482Z,2.80
2022-07-29T04:41:34.653Z,2.37
2022-07-29T04:45:36.830Z,2.45
2022-07-29T04:49:39.685Z,2.75
2022-07-29T04:57:42.891Z,2.50
2022-07-29T05:01:44.567Z,2.55
2022-07-29T05:05:46.336Z,3.22
2022-07-29T05:09:48.075Z,3.10
2022-07-29T05:13:49.730Z,3.15
2022-07-29T05:17:51.350Z,3.00
2022-07-29T05:21:52.971Z,3.38
2022-07-29T05:25:54.567Z,2.88
2022-07-29T05:29:56.162Z,2.78
2022-07-29T05:33:57.853Z,3.17
2022-07-29T05:37:59.414Z,3.10
2022-07-29T05:42:01.029Z,2.58
2022-07-29T05:46:02.783Z,3.55
2022-07-29T05:50:05.521Z,2.95
2022-07-29T05:54:07.200Z,3.05
2022-07-29T05:58:08.789Z,2.95
2022-07-29T06:02:10.549Z,3.25
2022-07-29T06:06:12.405Z,3.45
2022-07-29T06:10:14.339Z,3.45
2022-07-29T06:14:16.329Z,3.07
2022-07-29T06:18:18.509Z,2.60
2022-07-29T06:22:20.158Z,3.08
2022-07-29T06:26:31.007Z,2.95
2022-07-29T06:30:34.237Z,3.83
2022-07-29T06:34:36.891Z,3.13
2022-07-29T06:38:42.092Z,3.40
2022-07-29T06:42:47.184Z,3.25
2022-07-29T06:46:51.105Z,3.58
2022-07-29T06:50:52.703Z,2.67
2022-07-29T06:54:56.056Z,3.08
2022-07-29T06:58:57.696Z,3.15
2022-07-29T07:02:59.289Z,2.80
2022-07-29T07:07:00.951Z,3.25
2022-07-29T07:11:02.748Z,3.35
2022-07-29T07:15:04.880Z,3.03
2022-07-29T07:19:06.545Z,3.30
2022-07-29T07:23:08.352Z,3.50
2022-07-29T07:27:10.044Z,3.43
2022-07-29T07:31:13.126Z,3.10
2022-07-29T07:35:15.425Z,3.13
2022-07-29T07:39:17.243Z,3.60
2022-07-29T07:43:20.074Z,3.30
2022-07-29T07:47:24.521Z,3.15
2022-07-29T07:51:30.184Z,3.28
2022-07-29T07:55:47.489Z,3.40
2022-07-29T07:59:54.272Z,3.15
2022-07-29T08:03:56.055Z,3.30
2022-07-29T08:07:57.773Z,3.30
2022-07-29T08:12:00.490Z,3.50
2022-07-29T08:20:08.118Z,3.40
2022-07-29T08:24:29.846Z,3.28
2022-07-29T08:28:31.866Z,3.55
2022-07-29T08:32:52.507Z,3.30
2022-07-29T08:36:56.696Z,3.40
2022-07-29T08:40:59.468Z,3.15
2022-07-29T08:45:01.350Z,3.25
2022-07-29T08:49:03.169Z,3.40
2022-07-29T08:53:06.015Z,3.53
2022-07-29T08:57:07.722Z,3.47
2022-07-29T09:01:13.914Z,3.47
2022-07-29T09:05:16.849Z,3.67
2022-07-29T09:09:18.778Z,3.63
2022-07-29T09:13:20.424Z,4.60
2022-07-29T09:17:53.025Z,3.35
2022-07-29T09:22:03.059Z,3.35
2022-07-29T09:26:09.588Z,3.90
2022-07-29T09:30:15.266Z,3.72
2022-07-29T09:34:30.733Z,3.75
2022-07-29T09:38:33.631Z,3.63
2022-07-29T09:42:35.348Z,3.88
2022-07-29T09:46:37.277Z,3.42
2022-07-29T09:50:43.310Z,3.90
2022-07-29T09:54:45.941Z,3.70
2022-07-29T09:58:47.709Z,4.32
2022-07-29T10:02:49.738Z,3.95
2022-07-29T10:07:05.274Z,4.10
2022-07-29T10:11:15.704Z,4.03
2022-07-29T10:15:17.498Z,4.38
2022-07-29T10:19:19.487Z,4.28
2022-07-29T10:23:21.488Z,4.13
2022-07-29T10:27:23.186Z,3.78
2022-07-29T10:31:37.801Z,4.30
2022-07-29T10:35:39.668Z,4.15
2022-07-29T10:40:23.667Z,4.50
2022-07-29T10:44:26.785Z,3.85
2022-07-29T10:48:28.533Z,4.18
2022-07-29T10:52:51.596Z,3.78
2022-07-29T10:56:53.305Z,4.35
2022-07-29T11:00:57.580Z,4.05
2022-07-29T11:05:01.371Z,4.45
2022-07-29T11:09:25.589Z,4.20
2022-07-29T11:13:49.397Z,4.70
2022-07-29T11:17:54.475Z,4.13
2022-07-29T11:21:58.533Z,4.05
2022-07-29T11:26:23.085Z,4.50
2022-07-29T11:30:52.207Z,4.25
2022-07-29T11:35:17.208Z,4.10
2022-07-29T11:39:27.062Z,4.72
2022-07-29T11:43:53.541Z,4.70
2022-07-29T11:48:05.249Z,4.25
2022-07-29T11:52:08.203Z,4.90
2022-07-29T11:56:17.044Z,4.55
2022-07-29T12:00:23.545Z,4.47
2022-07-29T12:04:27.632Z,4.55
2022-07-29T12:08:30.539Z,5.30
2022-07-29T12:12:32.274Z,4.55
2022-07-29T12:16:38.344Z,5.18
2022-07-29T12:20:40.392Z,5.22
2022-07-29T12:24:45.704Z,5.05
2022-07-29T12:28:52.796Z,5.30
2022-07-29T12:32:56.569Z,4.85
2022-07-29T12:36:58.545Z,5.30
2022-07-29T12:41:00.450Z,5.05
2022-07-29T12:45:02.593Z,5.03
2022-07-29T12:49:04.747Z,4.80
2022-07-29T12:53:12.651Z,4.30
2022-07-29T12:57:20.082Z,4.30
2022-07-29T13:01:22.598Z,4.18
2022-07-29T13:05:25.320Z,4.22
2022-07-29T13:09:41.410Z,4.30
2022-07-29T13:14:06.626Z,4.03
2022-07-29T13:18:32.380Z,3.78
2022-07-29T13:22:34.031Z,4.20
2022-07-29T13:26:35.941Z,4.10
2022-07-29T13:30:37.831Z,4.43
2022-07-29T13:34:46.430Z,4.60
2022-07-29T13:38:48.336Z,4.10
2022-07-29T13:42:50.071Z,4.68
2022-07-29T13:46:51.923Z,4.07
2022-07-29T13:50:53.726Z,4.20
2022-07-29T13:54:55.390Z,4.10
2022-07-29T13:58:58.174Z,4.45
2022-07-29T14:02:59.824Z,3.90
2022-07-29T14:07:03.578Z,3.72
2022-07-29T14:11:05.650Z,4.20
2022-07-29T14:19:09.216Z,3.90
2022-07-29T14:23:10.870Z,3.83
2022-07-29T14:27:14.807Z,3.67
2022-07-29T14:31:17.053Z,3.97
2022-07-29T14:35:18.942Z,3.55
2022-07-29T14:39:21.096Z,3.67
2022-07-29T14:43:22.757Z,3.95
2022-07-29T14:47:24.785Z,3.78
2022-07-29T14:55:34.296Z,4.22
2022-07-29T14:59:37.307Z,4.15
2022-07-29T15:03:38.965Z,3.80
2022-07-29T15:07:40.940Z,3.90
2022-07-29T15:11:42.734Z,4.10
2022-07-29T15:15:47.081Z,4.18
2022-07-29T15:19:48.871Z,3.92
2022-07-29T15:27:53.990Z,3.92
2022-07-29T15:31:57.700Z,3.72
2022-07-29T15:35:59.701Z,4.00
2022-07-29T15:40:01.467Z,4.70
2022-07-29T15:48:07.574Z,3.95
2022-07-29T15:52:10.594Z,3.97
2022-07-29T15:56:14.265Z,3.95
2022-07-29T16:00:17.882Z,3.75
2022-07-29T16:04:20.037Z,3.90
2022-07-29T16:08:21.692Z,4.10
2022-07-29T16:12:23.354Z,3.90
2022-07-29T16:16:25.129Z,3.53
2022-07-29T16:20:27.068Z,3.83
2022-07-29T16:24:29.818Z,3.72
2022-07-29T16:28:31.695Z,4.32
2022-07-29T16:32:33.605Z,4.45
2022-07-29T16:36:35.297Z,4.18
2022-07-29T16:40:36.985Z,4.20
2022-07-29T16:44:38.752Z,4.18
2022-07-29T16:48:40.779Z,3.90
2022-07-29T16:52:43.150Z,4.38
2022-07-29T16:56:44.831Z,4.00
2022-07-29T17:00:46.494Z,4.20
2022-07-29T17:04:48.463Z,3.67
2022-07-29T17:08:50.196Z,3.58
2022-07-29T17:12:52.079Z,3.65
2022-07-29T17:17:01.298Z,3.50
2022-07-29T17:21:03.803Z,3.20
2022-07-29T17:25:06.481Z,3.65
2022-07-29T17:29:08.159Z,3.22
2022-07-29T17:33:09.809Z,3.43
2022-07-29T17:37:12.300Z,3.10
2022-07-29T17:45:15.545Z,3.35
2022-07-29T17:49:17.473Z,3.40
2022-07-29T17:53:19.312Z,3.70
2022-07-29T17:57:20.961Z,3.83
2022-07-29T18:01:22.631Z,3.27
2022-07-29T18:05:24.355Z,3.50
2022-07-29T18:09:27.091Z,3.67
2022-07-29T18:13:28.851Z,4.07
2022-07-29T18:17:52.861Z,4.30
2022-07-29T18:21:55.225Z,4.15
2022-07-29T18:25:58.509Z,3.75
2022-07-29T18:30:00.214Z,4.45
2022-07-29T18:34:06.636Z,3.85
2022-07-29T18:38:08.332Z,3.77
2022-07-29T18:42:09.966Z,3.60
2022-07-29T18:46:11.699Z,3.83
2022-07-29T18:50:16.784Z,3.80
2022-07-29T18:54:19.129Z,4.55
2022-07-29T18:58:37.399Z,4.00
2022-07-29T19:02:40.218Z,4.30
2022-07-29T19:06:44.466Z,4.35
2022-07-29T19:10:46.634Z,4.32
2022-07-29T19:14:48.293Z,4.13
2022-07-29T19:18:51.873Z,5.18
2022-07-29T19:22:53.517Z,4.45
2022-07-29T19:26:56.522Z,4.68
2022-07-29T19:30:58.919Z,4.40
2022-07-29T19:35:19.565Z,4.10
2022-07-29T19:39:35.285Z,4.63
2022-07-29T19:43:49.976Z,5.07
2022-07-29T19:48:01.064Z,4.70
2022-07-29T19:52:03.486Z,4.60
2022-07-29T21:17:47.255Z,4.78
2022-07-29T21:21:48.843Z,5.22
2022-07-29T21:25:50.418Z,5.70
2022-07-29T21:29:51.990Z,5.50
2022-07-29T21:33:54.179Z,6.28
2022-07-29T21:37:55.836Z,5.70
2022-07-29T21:41:57.524Z,5.88
2022-07-29T21:46:00.299Z,5.93
2022-07-29T21:54:04.215Z,5.43
2022-07-29T21:58:06.241Z,5.63
2022-07-29T22:02:08.029Z,6.10
2022-07-29T22:06:11.328Z,5.47
2022-07-29T22:10:20.515Z,4.93
2022-07-29T22:14:22.327Z,5.10
2022-07-29T22:18:23.948Z,5.60
2022-07-29T22:22:25.634Z,5.20
2022-07-29T22:26:27.360Z,5.25
2022-07-29T22:30:29.019Z,5.45
2022-07-29T22:34:31.758Z,5.03
2022-07-29T22:38:39.526Z,5.45
2022-07-29T22:42:43.914Z,5.68
2022-07-29T22:46:45.744Z,5.32
2022-07-29T22:50:47.329Z,5.47
2022-07-29T22:54:48.959Z,6.13
2022-07-29T22:58:50.894Z,5.43
2022-07-29T23:02:52.467Z,5.17
2022-07-29T23:06:54.055Z,5.63
2022-07-29T23:10:55.678Z,5.18
2022-07-29T23:14:57.250Z,5.43
2022-07-29T23:18:58.834Z,5.18
2022-07-29T23:23:00.642Z,5.07
2022-07-29T23:27:02.675Z,5.30
2022-07-29T23:31:04.558Z,5.57
2022-07-29T23:35:07.164Z,5.47
2022-07-29T23:39:11.395Z,5.25
2022-07-29T23:43:13.002Z,5.30
2022-07-29T23:47:14.564Z,5.32
2022-07-29T23:51:16.241Z,5.78
2022-07-29T23:55:37.253Z,5.47
2022-07-29T23:59:40.257Z,5.23
